Time;durP1;ratioP1;P1;durP2;ratioP2;P2;SDS_P1;SDS_P2;PMS_P1;PMS_P2;Temp;Humidity;BMP_temperature;BMP_pressure;BME280_temperature;BME280_humidity;BME280_pressure;Samples;Min_cycle;Max_cycle;Signal;HPM_P1;HPM_P2
2022/09/22 00:06:47;;;;;;;1.15;0.68;;;20.90;48.00;;;;;;20746598;28;20435;-76
2022/09/22 00:16:50;;;;;;;0.40;0.40;;;20.80;47.90;;;;;;20735625;28;20038;-76
2022/09/22 00:26:52;;;;;;;1.30;0.70;;;20.80;47.90;;;;;;20734309;28;20116;-76
2022/09/22 00:36:52;;;;;;;1.52;0.80;;;20.80;47.90;;;;;;20820569;28;20128;-75
2022/09/22 00:47:02;;;;;;;2.03;1.05;;;20.70;47.80;;;;;;20739177;28;20111;-76
2022/09/22 00:57:11;;;;;;;1.88;0.73;;;20.70;47.80;;;;;;20732922;28;20171;-76
2022/09/22 01:07:11;;;;;;;1.23;0.70;;;20.70;47.70;;;;;;20716043;28;20435;-76
2022/09/22 01:17:21;;;;;;;1.27;0.60;;;20.70;47.70;;;;;;20714959;28;20076;-77
2022/09/22 01:27:58;;;;;;;1.42;0.90;;;20.70;47.70;;;;;;20715070;28;20068;-75
2022/09/22 01:38:07;;;;;;;1.02;0.60;;;20.60;47.70;;;;;;21104572;23;20060;-79
2022/09/22 01:48:17;;;;;;;1.48;0.60;;;20.60;47.70;;;;;;20776484;28;20063;-76
2022/09/22 01:58:37;;;;;;;0.85;0.57;;;20.60;47.70;;;;;;20787963;28;20373;-76
2022/09/22 02:08:44;;;;;;;1.20;0.60;;;20.60;47.70;;;;;;20729322;28;20034;-77
2022/09/22 02:18:49;;;;;;;0.80;0.50;;;20.60;47.60;;;;;;20720335;28;20486;-75
2022/09/22 02:29:02;;;;;;;0.65;0.65;;;20.80;47.30;;;;;;20760766;28;20030;-79
2022/09/22 02:39:22;;;;;;;1.08;0.63;;;21.00;46.80;;;;;;20726746;28;20037;-77
2022/09/22 02:49:22;;;;;;;3.83;0.90;;;21.20;46.40;;;;;;20743195;28;20041;-78
2022/09/22 02:59:23;;;;;;;1.13;0.65;;;21.40;46.10;;;;;;20759937;28;20419;-77
2022/09/22 03:09:24;;;;;;;1.08;0.60;;;21.40;45.80;;;;;;20740691;28;20465;-77
2022/09/22 03:19:24;;;;;;;1.30;0.70;;;21.30;45.80;;;;;;20725093;28;20034;-77
2022/09/22 03:29:25;;;;;;;0.47;0.47;;;20.70;46.80;;;;;;20739479;28;20049;-75
2022/09/22 03:39:25;;;;;;;0.85;0.52;;;20.10;48.00;;;;;;20689020;28;20073;-75
2022/09/22 03:49:26;;;;;;;0.82;0.68;;;19.80;48.70;;;;;;20738196;28;20041;-75
2022/09/22 03:59:26;;;;;;;0.88;0.50;;;19.60;49.20;;;;;;20753280;28;20026;-76
2022/09/22 04:09:27;;;;;;;1.05;0.73;;;19.50;49.50;;;;;;20753879;28;20030;-76
2022/09/22 04:19:27;;;;;;;0.95;0.60;;;19.80;49.10;;;;;;20792822;28;20506;-75
2022/09/22 04:29:28;;;;;;;1.27;0.50;;;20.00;48.40;;;;;;20816733;28;20034;-76
2022/09/22 04:39:29;;;;;;;0.98;0.50;;;20.10;48.20;;;;;;20814943;28;20384;-76
2022/09/22 04:49:29;;;;;;;1.20;0.60;;;20.30;47.70;;;;;;20749849;28;20499;-74
2022/09/22 04:59:30;;;;;;;1.08;0.55;;;20.40;47.40;;;;;;20713670;28;20034;-77
2022/09/22 05:09:31;;;;;;;0.77;0.60;;;20.50;47.20;;;;;;20728290;28;20037;-75
2022/09/22 05:19:31;;;;;;;0.52;0.30;;;20.50;47.10;;;;;;20743165;28;20070;-73
2022/09/22 05:29:32;;;;;;;0.60;0.50;;;20.40;47.00;;;;;;20707901;28;20060;-84
2022/09/22 05:39:32;;;;;;;2.10;0.80;;;20.40;47.00;;;;;;20724981;28;20068;-73
2022/09/22 05:49:33;;;;;;;1.20;0.70;;;20.40;47.00;;;;;;20722405;28;20072;-72
2022/09/22 05:59:33;;;;;;;1.48;0.73;;;20.40;46.70;;;;;;20707527;28;20046;-74
2022/09/22 06:09:34;;;;;;;2.83;0.98;;;20.30;46.60;;;;;;20748081;28;20092;-72
2022/09/22 06:19:35;;;;;;;0.93;0.75;;;20.30;46.50;;;;;;20722429;28;20120;-71
2022/09/22 06:29:36;;;;;;;2.00;0.60;;;20.30;46.50;;;;;;20737731;28;20821;-72
2022/09/22 06:39:37;;;;;;;0.30;0.30;;;20.30;46.50;;;;;;20737571;28;20041;-77
2022/09/22 06:49:37;;;;;;;1.70;0.82;;;20.20;46.60;;;;;;20710670;28;20049;-74
2022/09/22 06:59:40;;;;;;;1.88;1.45;;;20.20;46.70;;;;;;20720957;28;20066;-74
2022/09/22 07:09:40;;;;;;;2.70;1.65;;;20.20;46.80;;;;;;20753737;28;20034;-74
2022/09/22 07:19:41;;;;;;;1.02;0.60;;;20.10;46.90;;;;;;20717770;28;20534;-74
2022/09/22 07:29:43;;;;;;;0.95;0.52;;;20.10;47.10;;;;;;20735383;28;20120;-74
2022/09/22 07:39:44;;;;;;;2.42;0.70;;;20.10;47.30;;;;;;20749623;28;20117;-74
2022/09/22 07:49:45;;;;;;;1.42;0.80;;;20.00;47.50;;;;;;20715947;28;20132;-76
2022/09/22 07:59:45;;;;;;;1.77;0.93;;;20.00;47.60;;;;;;20722053;28;20140;-76
2022/09/22 08:09:46;;;;;;;0.50;0.47;;;20.10;47.80;;;;;;20698872;28;20100;-74
2022/09/22 08:19:46;;;;;;;0.50;0.47;;;20.10;47.80;;;;;;20745483;28;20065;-74
2022/09/22 08:29:47;;;;;;;2.05;0.57;;;20.20;47.90;;;;;;20728632;28;20447;-75
2022/09/22 08:39:47;;;;;;;1.00;0.60;;;20.20;48.50;;;;;;20725820;28;20125;-74
2022/09/22 09:00:11;;;;;;;1.05;0.68;;;20.40;48.40;;;;;;20788724;28;20034;-75
2022/09/22 09:10:35;;;;;;;1.70;0.63;;;20.50;47.50;;;;;;20710314;28;20476;-74
2022/09/22 09:20:38;;;;;;;1.38;0.65;;;20.60;47.30;;;;;;20721316;28;20294;-75
2022/09/22 09:30:45;;;;;;;1.35;0.57;;;20.70;47.20;;;;;;20726036;28;20073;-74
2022/09/22 09:40:53;;;;;;;0.40;0.40;;;20.80;46.90;;;;;;20724109;28;21325;-73
2022/09/22 09:50:53;;;;;;;1.45;0.60;;;20.90;46.70;;;;;;20715672;28;20083;-74
2022/09/22 10:00:58;;;;;;;0.90;0.40;;;21.10;46.50;;;;;;20772768;28;20482;-74
2022/09/22 10:10:59;;;;;;;0.73;0.40;;;21.20;46.20;;;;;;20723065;28;20049;-74
2022/09/22 10:21:17;;;;;;;0.88;0.32;;;21.30;46.00;;;;;;20738620;28;20037;-73
2022/09/22 10:31:23;;;;;;;0.57;0.40;;;21.50;45.70;;;;;;20721568;28;20034;-74
2022/09/22 10:41:27;;;;;;;0.57;0.40;;;21.70;45.40;;;;;;20746694;28;20042;-75
2022/09/22 10:51:38;;;;;;;0.70;0.35;;;21.80;45.00;;;;;;20762404;28;20042;-76
2022/09/22 11:01:50;;;;;;;0.75;0.30;;;22.00;44.80;;;;;;20751889;28;20395;-73
2022/09/22 11:12:31;;;;;;;0.63;0.30;;;21.60;45.40;;;;;;20715985;28;20037;-74
2022/09/22 11:22:42;;;;;;;0.38;0.20;;;21.20;46.10;;;;;;20750331;28;20037;-73
2022/09/22 11:32:54;;;;;;;0.28;0.15;;;21.10;46.40;;;;;;20748601;28;20465;-73
2022/09/22 11:42:58;;;;;;;0.55;0.25;;;21.30;46.00;;;;;;20740731;28;20377;-73
2022/09/22 11:53:32;;;;;;;0.65;0.30;;;21.60;45.50;;;;;;20768587;28;20041;-81
2022/09/22 12:03:57;;;;;;;0.28;0.20;;;22.00;45.10;;;;;;20750353;28;20390;-80
2022/09/22 12:13:59;;;;;;;0.22;0.20;;;22.10;44.90;;;;;;20717771;28;20455;-81
2022/09/22 12:24:06;;;;;;;0.17;0.13;;;22.10;44.80;;;;;;20735962;28;20041;-81
2022/09/22 12:34:39;;;;;;;0.20;0.20;;;22.10;44.90;;;;;;20718004;28;20492;-80
2022/09/22 12:44:45;;;;;;;0.20;0.20;;;22.00;45.10;;;;;;20689830;28;20042;-80
2022/09/22 12:54:45;;;;;;;;;;;22.00;45.00;;;;;;20735812;28;20048;-80
2022/09/22 13:04:55;;;;;;;0.45;0.25;;;22.10;44.90;;;;;;20748905;28;19913;-78
2022/09/22 13:14:59;;;;;;;0.47;0.22;;;22.20;44.70;;;;;;20749001;28;20128;-81
2022/09/22 13:25:13;;;;;;;0.20;0.20;;;21.90;45.10;;;;;;20731541;28;20040;-81
2022/09/22 13:35:34;;;;;;;0.52;0.15;;;21.60;45.90;;;;;;20713133;28;20366;-79
2022/09/22 13:45:34;;;;;;;1.25;0.30;;;21.30;46.50;;;;;;20648739;28;20503;-80
2022/09/22 13:55:36;;;;;;;0.43;0.30;;;21.00;47.00;;;;;;20760785;28;20065;-80
2022/09/22 14:05:36;;;;;;;0.10;0.10;;;20.90;47.60;;;;;;20704953;28;20149;-77
2022/09/22 14:15:37;;;;;;;0.40;0.20;;;20.70;47.80;;;;;;20738552;28;20062;-75
2022/09/22 14:25:37;;;;;;;1.17;0.30;;;20.70;48.10;;;;;;20761798;28;20029;-75
2022/09/22 14:35:40;;;;;;;1.02;0.20;;;20.60;48.30;;;;;;20726970;28;20403;-76
2022/09/22 14:45:59;;;;;;;0.60;0.30;;;20.80;48.30;;;;;;20743437;28;20503;-75
2022/09/22 14:56:09;;;;;;;0.40;0.40;;;21.50;46.90;;;;;;20759982;28;20034;-74
2022/09/22 15:06:11;;;;;;;0.73;0.30;;;21.70;46.30;;;;;;20741537;28;20033;-77
2022/09/22 15:16:50;;;;;;;0.30;0.22;;;22.00;45.80;;;;;;20736564;28;20526;-73
2022/09/22 15:26:51;;;;;;;1.98;0.35;;;22.30;45.10;;;;;;20580622;28;20551;-69
2022/09/22 15:36:54;;;;;;;1.60;0.47;;;22.40;44.70;;;;;;20806580;28;20056;-72
2022/09/22 15:46:59;;;;;;;0.82;0.40;;;22.50;44.50;;;;;;20738156;28;20037;-72
2022/09/22 15:57:03;;;;;;;13.18;5.03;;;22.50;44.20;;;;;;20733321;28;20033;-72
2022/09/22 16:07:07;;;;;;;8.23;2.30;;;22.40;44.40;;;;;;20704704;28;20121;-72
2022/09/22 16:17:07;;;;;;;4.68;1.63;;;22.40;44.60;;;;;;20748863;28;20572;-72
2022/09/22 16:27:08;;;;;;;3.75;1.42;;;22.30;44.80;;;;;;20717717;28;20042;-72
2022/09/22 16:37:09;;;;;;;5.63;1.45;;;22.20;45.00;;;;;;20749025;28;20108;-75
2022/09/22 16:47:11;;;;;;;2.55;0.88;;;22.20;45.10;;;;;;20724804;28;20073;-72
2022/09/22 16:57:12;;;;;;;2.95;1.00;;;22.00;45.40;;;;;;20711161;28;20050;-78
2022/09/22 17:07:12;;;;;;;1.38;0.60;;;21.80;45.70;;;;;;20722512;28;20043;-74
2022/09/22 17:17:13;;;;;;;2.60;0.88;;;21.70;46.00;;;;;;20741120;28;20038;-74
2022/09/22 17:27:15;;;;;;;2.28;0.75;;;21.70;46.30;;;;;;20726459;28;20038;-73
2022/09/22 17:37:18;;;;;;;4.63;0.65;;;21.60;46.40;;;;;;20742766;28;20041;-74
2022/09/22 17:57:42;;;;;;;0.75;0.40;;;21.50;46.80;;;;;;20818851;28;20053;-74
2022/09/22 18:07:43;;;;;;;1.65;0.50;;;21.40;46.90;;;;;;20739785;28;20042;-75
2022/09/22 18:17:43;;;;;;;1.20;0.35;;;21.40;47.10;;;;;;20726514;28;20052;-75
2022/09/22 18:27:45;;;;;;;0.55;0.40;;;21.40;47.90;;;;;;20712341;28;20112;-76
2022/09/22 18:37:45;;;;;;;1.10;0.60;;;21.30;47.30;;;;;;20726468;28;20046;-75
2022/09/22 18:47:46;;;;;;;0.30;0.30;;;21.20;47.40;;;;;;20719448;28;20100;-75
2022/09/22 18:57:46;;;;;;;0.30;0.30;;;21.20;47.50;;;;;;20746981;28;20042;-74
2022/09/22 19:07:47;;;;;;;0.30;0.20;;;21.20;47.70;;;;;;20757324;28;20632;-78
2022/09/22 19:17:48;;;;;;;0.63;0.32;;;21.10;47.70;;;;;;20791789;28;20487;-75
2022/09/22 19:27:51;;;;;;;0.70;0.40;;;21.10;47.80;;;;;;20739617;28;20088;-75
2022/09/22 19:37:52;;;;;;;0.22;0.13;;;21.10;47.90;;;;;;20737963;28;20046;-74
2022/09/22 19:47:55;;;;;;;0.50;0.20;;;21.10;48.00;;;;;;20734083;28;20034;-74
2022/09/22 19:57:55;;;;;;;0.52;0.30;;;21.00;48.00;;;;;;20735955;28;20077;-75
2022/09/22 20:08:00;;;;;;;0.45;0.35;;;20.90;48.00;;;;;;20702412;28;20168;-74
2022/09/22 20:18:00;;;;;;;0.52;0.25;;;21.00;48.20;;;;;;20752194;28;20045;-74
2022/09/22 20:28:04;;;;;;;0.95;0.35;;;20.90;48.20;;;;;;20719215;28;20544;-74
2022/09/22 20:38:05;;;;;;;0.45;0.28;;;20.90;48.20;;;;;;20750720;28;20050;-75
2022/09/22 20:48:05;;;;;;;0.68;0.30;;;20.80;48.20;;;;;;20733574;28;20081;-75
2022/09/22 20:58:06;;;;;;;1.75;0.40;;;20.80;48.30;;;;;;20733456;28;20145;-74
2022/09/22 21:18:26;;;;;;;0.45;0.25;;;20.80;48.40;;;;;;20748258;28;20046;-75
2022/09/22 21:28:27;;;;;;;0.30;0.30;;;20.70;48.30;;;;;;20731860;28;20412;-74
2022/09/22 21:38:29;;;;;;;0.60;0.40;;;20.70;48.40;;;;;;20762182;28;20037;-75
2022/09/22 21:48:30;;;;;;;0.47;0.20;;;20.70;48.40;;;;;;20747253;28;20412;-75
2022/09/22 21:58:32;;;;;;;0.70;0.40;;;20.70;48.40;;;;;;20745088;28;20034;-75
2022/09/22 22:08:38;;;;;;;0.30;0.22;;;20.60;48.40;;;;;;20746233;28;20038;-75
2022/09/22 22:18:39;;;;;;;0.50;0.47;;;20.60;48.40;;;;;;20712169;28;20040;-75
2022/09/22 22:28:40;;;;;;;1.40;0.45;;;20.60;48.50;;;;;;20728386;28;20041;-74
2022/09/22 22:38:41;;;;;;;0.95;0.30;;;20.50;48.40;;;;;;20756123;28;20448;-76
2022/09/22 22:48:42;;;;;;;0.47;0.30;;;20.50;48.50;;;;;;20742912;28;20053;-75
2022/09/22 22:58:43;;;;;;;0.50;0.30;;;20.50;48.50;;;;;;20744734;28;20445;-74
2022/09/22 23:08:44;;;;;;;0.57;0.28;;;20.40;48.50;;;;;;20742642;28;20395;-75
2022/09/22 23:18:45;;;;;;;0.50;0.40;;;20.40;48.50;;;;;;20740681;28;20057;-75
2022/09/22 23:28:45;;;;;;;1.33;0.40;;;20.40;48.60;;;;;;20724393;28;20300;-74
2022/09/22 23:38:46;;;;;;;0.20;0.20;;;20.40;48.60;;;;;;20723679;28;20041;-74
2022/09/22 23:48:46;;;;;;;1.02;0.30;;;20.30;48.60;;;;;;20755791;28;20186;-74
2022/09/22 23:58:47;;;;;;;0.82;0.38;;;20.30;48.60;;;;;;20722519;28;20168;-78
